METAR Data
IDs: Format: Raw Decoded Include TAF

Data at: 0832 UTC 01 Aug 2021

EBCV 010755Z AUTO 24007KT 9999 SCT007/// BKN100/// 16/15 Q1010 GRN